sensor_id;sensor_type;location;lat;lon;timestamp;temperature;humidity
14099;DHT22;7126;48.458;7.930;2023-03-14T00:01:19;12.20;99.90
14099;DHT22;7126;48.458;7.930;2023-03-14T00:03:46;12.20;99.90
14099;DHT22;7126;48.458;7.930;2023-03-14T00:06:12;12.20;99.90
14099;DHT22;7126;48.458;7.930;2023-03-14T00:08:38;12.20;99.90
14099;DHT22;7126;48.458;7.930;2023-03-14T00:11:10;12.10;99.90
14099;DHT22;7126;48.458;7.930;2023-03-14T00:13:36;12.10;99.90
14099;DHT22;7126;48.458;7.930;2023-03-14T00:16:04;12.10;99.90
14099;DHT22;7126;48.458;7.930;2023-03-14T00:18:29;12.10;99.90
14099;DHT22;7126;48.458;7.930;2023-03-14T00:20:58;12.00;99.90
14099;DHT22;7126;48.458;7.930;2023-03-14T00:23:24;12.00;99.90
14099;DHT22;7126;48.458;7.930;2023-03-14T00:25:50;12.00;99.90
14099;DHT22;7126;48.458;7.930;2023-03-14T00:28:15;12.00;99.90
14099;DHT22;7126;48.458;7.930;2023-03-14T00:30:41;12.00;99.90
14099;DHT22;7126;48.458;7.930;2023-03-14T00:33:06;11.90;99.90
14099;DHT22;7126;48.458;7.930;2023-03-14T00:35:32;11.90;99.90
14099;DHT22;7126;48.458;7.930;2023-03-14T00:37:57;11.90;99.90
14099;DHT22;7126;48.458;7.930;2023-03-14T00:40:23;11.90;99.90
14099;DHT22;7126;48.458;7.930;2023-03-14T00:42:48;11.90;99.90
14099;DHT22;7126;48.458;7.930;2023-03-14T00:45:14;12.00;99.90
14099;DHT22;7126;48.458;7.930;2023-03-14T00:47:40;11.90;99.90
14099;DHT22;7126;48.458;7.930;2023-03-14T00:50:06;11.90;99.90
14099;DHT22;7126;48.458;7.930;2023-03-14T00:52:32;11.90;99.90
14099;DHT22;7126;48.458;7.930;2023-03-14T00:54:57;11.90;99.90
14099;DHT22;7126;48.458;7.930;2023-03-14T00:57:23;12.00;99.90
14099;DHT22;7126;48.458;7.930;2023-03-14T00:59:48;11.90;99.90
14099;DHT22;7126;48.458;7.930;2023-03-14T01:02:15;11.90;99.90
14099;DHT22;7126;48.458;7.930;2023-03-14T01:04:41;11.90;99.90
14099;DHT22;7126;48.458;7.930;2023-03-14T01:07:08;11.90;99.90
14099;DHT22;7126;48.458;7.930;2023-03-14T01:09:34;11.90;99.90
14099;DHT22;7126;48.458;7.930;2023-03-14T01:11:59;11.90;99.90
14099;DHT22;7126;48.458;7.930;2023-03-14T01:14:25;11.80;99.90
14099;DHT22;7126;48.458;7.930;2023-03-14T01:16:50;11.80;99.90
14099;DHT22;7126;48.458;7.930;2023-03-14T01:19:16;11.80;99.90
14099;DHT22;7126;48.458;7.930;2023-03-14T01:21:41;11.80;99.90
14099;DHT22;7126;48.458;7.930;2023-03-14T01:24:07;11.80;99.90
14099;DHT22;7126;48.458;7.930;2023-03-14T01:26:34;11.80;99.90
14099;DHT22;7126;48.458;7.930;2023-03-14T01:29:00;11.80;99.90
14099;DHT22;7126;48.458;7.930;2023-03-14T01:31:27;11.70;99.90
14099;DHT22;7126;48.458;7.930;2023-03-14T01:33:53;11.70;99.90
14099;DHT22;7126;48.458;7.930;2023-03-14T01:36:18;11.70;99.90
14099;DHT22;7126;48.458;7.930;2023-03-14T01:38:44;11.70;99.90
14099;DHT22;7126;48.458;7.930;2023-03-14T01:41:15;11.70;99.90
14099;DHT22;7126;48.458;7.930;2023-03-14T01:43:41;11.70;99.90
14099;DHT22;7126;48.458;7.930;2023-03-14T01:51:19;11.60;99.90
14099;DHT22;7126;48.458;7.930;2023-03-14T01:53:47;11.60;99.90
14099;DHT22;7126;48.458;7.930;2023-03-14T01:56:14;11.60;99.90
14099;DHT22;7126;48.458;7.930;2023-03-14T01:58:42;11.60;99.90
14099;DHT22;7126;48.458;7.930;2023-03-14T02:01:10;11.60;99.90
14099;DHT22;7126;48.458;7.930;2023-03-14T02:03:52;11.60;99.90
14099;DHT22;7126;48.458;7.930;2023-03-14T02:06:23;11.60;99.90
14099;DHT22;7126;48.458;7.930;2023-03-14T02:08:50;11.60;99.90
14099;DHT22;7126;48.458;7.930;2023-03-14T02:11:17;11.50;99.90
14099;DHT22;7126;48.458;7.930;2023-03-14T02:13:44;11.60;99.90
14099;DHT22;7126;48.458;7.930;2023-03-14T02:16:10;11.50;99.90
14099;DHT22;7126;48.458;7.930;2023-03-14T02:18:36;11.50;99.90
14099;DHT22;7126;48.458;7.930;2023-03-14T02:21:17;11.50;99.90
14099;DHT22;7126;48.458;7.930;2023-03-14T02:27:00;11.50;99.90
14099;DHT22;7126;48.458;7.930;2023-03-14T02:29:27;11.50;99.90
14099;DHT22;7126;48.458;7.930;2023-03-14T02:31:53;11.50;99.90
14099;DHT22;7126;48.458;7.930;2023-03-14T02:34:19;11.50;99.90
14099;DHT22;7126;48.458;7.930;2023-03-14T02:36:44;11.50;99.90
14099;DHT22;7126;48.458;7.930;2023-03-14T02:39:37;11.50;99.90
14099;DHT22;7126;48.458;7.930;2023-03-14T02:42:04;11.50;99.90
14099;DHT22;7126;48.458;7.930;2023-03-14T02:44:29;11.50;99.90
14099;DHT22;7126;48.458;7.930;2023-03-14T02:46:55;11.50;99.90
14099;DHT22;7126;48.458;7.930;2023-03-14T02:49:21;11.50;99.90
14099;DHT22;7126;48.458;7.930;2023-03-14T02:51:47;11.50;99.90
14099;DHT22;7126;48.458;7.930;2023-03-14T02:54:14;11.50;99.90
14099;DHT22;7126;48.458;7.930;2023-03-14T02:56:40;11.50;99.90
14099;DHT22;7126;48.458;7.930;2023-03-14T02:59:06;11.50;99.90
14099;DHT22;7126;48.458;7.930;2023-03-14T03:01:33;11.50;99.90
14099;DHT22;7126;48.458;7.930;2023-03-14T03:03:59;11.60;99.90
14099;DHT22;7126;48.458;7.930;2023-03-14T03:06:24;11.50;99.90
14099;DHT22;7126;48.458;7.930;2023-03-14T03:08:50;11.60;99.90
14099;DHT22;7126;48.458;7.930;2023-03-14T03:11:15;11.60;99.90
14099;DHT22;7126;48.458;7.930;2023-03-14T03:13:41;11.50;99.90
14099;DHT22;7126;48.458;7.930;2023-03-14T03:16:07;11.60;99.90
14099;DHT22;7126;48.458;7.930;2023-03-14T03:18:32;11.60;99.90
14099;DHT22;7126;48.458;7.930;2023-03-14T03:21:02;11.50;99.90
14099;DHT22;7126;48.458;7.930;2023-03-14T03:23:29;11.50;99.90
14099;DHT22;7126;48.458;7.930;2023-03-14T03:25:55;11.50;99.90
14099;DHT22;7126;48.458;7.930;2023-03-14T03:28:20;11.50;99.90
14099;DHT22;7126;48.458;7.930;2023-03-14T03:30:46;11.50;99.90
14099;DHT22;7126;48.458;7.930;2023-03-14T03:33:12;11.50;99.90
14099;DHT22;7126;48.458;7.930;2023-03-14T03:35:46;11.50;99.90
14099;DHT22;7126;48.458;7.930;2023-03-14T03:38:12;11.60;99.90
14099;DHT22;7126;48.458;7.930;2023-03-14T03:40:38;11.50;99.90
14099;DHT22;7126;48.458;7.930;2023-03-14T03:43:04;11.50;99.90
14099;DHT22;7126;48.458;7.930;2023-03-14T03:45:30;11.50;99.90
14099;DHT22;7126;48.458;7.930;2023-03-14T03:47:55;11.50;99.90
14099;DHT22;7126;48.458;7.930;2023-03-14T03:50:21;11.50;99.90
14099;DHT22;7126;48.458;7.930;2023-03-14T03:52:47;11.50;99.90
14099;DHT22;7126;48.458;7.930;2023-03-14T03:55:12;11.50;99.90
14099;DHT22;7126;48.458;7.930;2023-03-14T03:57:38;11.50;99.90
14099;DHT22;7126;48.458;7.930;2023-03-14T04:00:05;11.50;99.90
14099;DHT22;7126;48.458;7.930;2023-03-14T04:02:31;11.50;99.90
14099;DHT22;7126;48.458;7.930;2023-03-14T04:04:56;11.50;99.90
14099;DHT22;7126;48.458;7.930;2023-03-14T04:07:22;11.50;99.90
14099;DHT22;7126;48.458;7.930;2023-03-14T04:09:48;11.40;99.90
14099;DHT22;7126;48.458;7.930;2023-03-14T04:12:13;11.40;99.90
14099;DHT22;7126;48.458;7.930;2023-03-14T04:14:39;11.40;99.90
14099;DHT22;7126;48.458;7.930;2023-03-14T04:17:06;11.40;99.90
14099;DHT22;7126;48.458;7.930;2023-03-14T04:19:32;11.40;99.90
14099;DHT22;7126;48.458;7.930;2023-03-14T04:21:58;11.40;99.90
14099;DHT22;7126;48.458;7.930;2023-03-14T04:24:23;11.40;99.90
14099;DHT22;7126;48.458;7.930;2023-03-14T04:26:49;11.40;99.90
14099;DHT22;7126;48.458;7.930;2023-03-14T04:29:14;11.40;99.90
14099;DHT22;7126;48.458;7.930;2023-03-14T04:31:40;11.40;99.90
14099;DHT22;7126;48.458;7.930;2023-03-14T04:34:05;11.40;99.90
14099;DHT22;7126;48.458;7.930;2023-03-14T04:36:31;11.40;99.90
14099;DHT22;7126;48.458;7.930;2023-03-14T04:38:57;11.40;99.90
14099;DHT22;7126;48.458;7.930;2023-03-14T04:41:22;11.40;99.90
14099;DHT22;7126;48.458;7.930;2023-03-14T04:43:48;11.40;99.90
14099;DHT22;7126;48.458;7.930;2023-03-14T04:46:13;11.40;99.90
14099;DHT22;7126;48.458;7.930;2023-03-14T04:48:39;11.40;99.90
14099;DHT22;7126;48.458;7.930;2023-03-14T04:51:05;11.40;99.90
14099;DHT22;7126;48.458;7.930;2023-03-14T04:53:30;11.40;99.90
14099;DHT22;7126;48.458;7.930;2023-03-14T04:55:56;11.40;99.90
14099;DHT22;7126;48.458;7.930;2023-03-14T04:58:23;11.40;99.90
14099;DHT22;7126;48.458;7.930;2023-03-14T05:00:49;11.50;99.90
14099;DHT22;7126;48.458;7.930;2023-03-14T05:03:16;11.40;99.90
14099;DHT22;7126;48.458;7.930;2023-03-14T05:05:42;11.40;99.90
14099;DHT22;7126;48.458;7.930;2023-03-14T05:08:08;11.40;99.90
14099;DHT22;7126;48.458;7.930;2023-03-14T05:10:34;11.40;99.90
14099;DHT22;7126;48.458;7.930;2023-03-14T05:12:59;11.40;99.90
14099;DHT22;7126;48.458;7.930;2023-03-14T05:15:25;11.40;99.90
14099;DHT22;7126;48.458;7.930;2023-03-14T05:17:51;11.50;99.90
14099;DHT22;7126;48.458;7.930;2023-03-14T05:20:17;11.50;99.90
14099;DHT22;7126;48.458;7.930;2023-03-14T05:22:42;11.50;99.90
14099;DHT22;7126;48.458;7.930;2023-03-14T05:25:08;11.50;99.90
14099;DHT22;7126;48.458;7.930;2023-03-14T05:27:34;11.50;99.90
14099;DHT22;7126;48.458;7.930;2023-03-14T05:30:00;11.50;99.90
14099;DHT22;7126;48.458;7.930;2023-03-14T05:32:26;11.50;99.90
14099;DHT22;7126;48.458;7.930;2023-03-14T05:34:52;11.50;99.90
14099;DHT22;7126;48.458;7.930;2023-03-14T05:37:17;11.50;99.90
14099;DHT22;7126;48.458;7.930;2023-03-14T05:39:43;11.50;99.90
14099;DHT22;7126;48.458;7.930;2023-03-14T05:42:08;11.50;99.90
14099;DHT22;7126;48.458;7.930;2023-03-14T05:44:34;11.50;99.90
14099;DHT22;7126;48.458;7.930;2023-03-14T05:46:59;11.50;99.90
14099;DHT22;7126;48.458;7.930;2023-03-14T05:49:25;11.50;99.90
14099;DHT22;7126;48.458;7.930;2023-03-14T05:51:51;11.60;99.90
14099;DHT22;7126;48.458;7.930;2023-03-14T05:54:16;11.60;99.90
14099;DHT22;7126;48.458;7.930;2023-03-14T05:56:42;11.60;99.90
14099;DHT22;7126;48.458;7.930;2023-03-14T05:59:07;11.50;99.90
14099;DHT22;7126;48.458;7.930;2023-03-14T06:01:34;11.50;99.90
14099;DHT22;7126;48.458;7.930;2023-03-14T06:04:00;11.50;99.90
14099;DHT22;7126;48.458;7.930;2023-03-14T06:06:25;11.50;99.90
14099;DHT22;7126;48.458;7.930;2023-03-14T06:08:51;11.50;99.90
14099;DHT22;7126;48.458;7.930;2023-03-14T06:11:16;11.50;99.90
14099;DHT22;7126;48.458;7.930;2023-03-14T06:13:42;11.40;99.90
14099;DHT22;7126;48.458;7.930;2023-03-14T06:16:08;11.50;99.90
14099;DHT22;7126;48.458;7.930;2023-03-14T06:18:33;11.50;99.90
14099;DHT22;7126;48.458;7.930;2023-03-14T06:20:59;11.50;99.90
14099;DHT22;7126;48.458;7.930;2023-03-14T06:23:25;11.60;99.90
14099;DHT22;7126;48.458;7.930;2023-03-14T06:25:52;11.50;99.90
14099;DHT22;7126;48.458;7.930;2023-03-14T06:28:17;11.50;99.90
14099;DHT22;7126;48.458;7.930;2023-03-14T06:30:43;11.60;99.90
14099;DHT22;7126;48.458;7.930;2023-03-14T06:33:09;11.60;99.90
14099;DHT22;7126;48.458;7.930;2023-03-14T06:35:35;11.60;99.90
14099;DHT22;7126;48.458;7.930;2023-03-14T06:38:00;11.60;99.90
14099;DHT22;7126;48.458;7.930;2023-03-14T06:40:26;11.60;99.90
14099;DHT22;7126;48.458;7.930;2023-03-14T06:42:51;11.60;99.90
14099;DHT22;7126;48.458;7.930;2023-03-14T06:45:17;11.60;99.90
14099;DHT22;7126;48.458;7.930;2023-03-14T06:47:43;11.60;99.90
14099;DHT22;7126;48.458;7.930;2023-03-14T06:50:09;11.70;99.90
14099;DHT22;7126;48.458;7.930;2023-03-14T06:52:35;11.70;99.90
14099;DHT22;7126;48.458;7.930;2023-03-14T06:55:01;11.70;99.90
14099;DHT22;7126;48.458;7.930;2023-03-14T06:57:26;11.70;99.90
14099;DHT22;7126;48.458;7.930;2023-03-14T06:59:52;11.70;99.90
14099;DHT22;7126;48.458;7.930;2023-03-14T07:02:17;11.80;99.90
14099;DHT22;7126;48.458;7.930;2023-03-14T07:04:43;11.80;99.90
14099;DHT22;7126;48.458;7.930;2023-03-14T07:07:09;11.80;99.90
14099;DHT22;7126;48.458;7.930;2023-03-14T07:09:35;11.80;99.90
14099;DHT22;7126;48.458;7.930;2023-03-14T07:12:01;11.80;99.90
14099;DHT22;7126;48.458;7.930;2023-03-14T07:14:28;11.80;99.90
14099;DHT22;7126;48.458;7.930;2023-03-14T07:16:54;11.80;99.90
14099;DHT22;7126;48.458;7.930;2023-03-14T07:19:19;11.90;99.90
14099;DHT22;7126;48.458;7.930;2023-03-14T07:21:45;11.90;99.90
14099;DHT22;7126;48.458;7.930;2023-03-14T07:24:10;11.90;99.90
14099;DHT22;7126;48.458;7.930;2023-03-14T07:26:36;11.90;99.90
14099;DHT22;7126;48.458;7.930;2023-03-14T07:29:01;12.00;99.90
14099;DHT22;7126;48.458;7.930;2023-03-14T07:31:29;12.00;99.90
14099;DHT22;7126;48.458;7.930;2023-03-14T07:33:54;12.00;99.90
14099;DHT22;7126;48.458;7.930;2023-03-14T07:36:20;12.00;99.90
14099;DHT22;7126;48.458;7.930;2023-03-14T07:38:46;12.00;99.90
14099;DHT22;7126;48.458;7.930;2023-03-14T07:41:12;12.00;99.90
14099;DHT22;7126;48.458;7.930;2023-03-14T07:43:37;12.00;99.90
14099;DHT22;7126;48.458;7.930;2023-03-14T07:46:03;12.00;99.90
14099;DHT22;7126;48.458;7.930;2023-03-14T07:48:29;12.10;99.90
14099;DHT22;7126;48.458;7.930;2023-03-14T07:50:55;12.10;99.90
14099;DHT22;7126;48.458;7.930;2023-03-14T07:53:21;12.10;99.90
14099;DHT22;7126;48.458;7.930;2023-03-14T07:55:48;12.10;99.90
14099;DHT22;7126;48.458;7.930;2023-03-14T07:58:14;12.10;99.90
14099;DHT22;7126;48.458;7.930;2023-03-14T08:00:39;12.10;99.90
14099;DHT22;7126;48.458;7.930;2023-03-14T08:03:05;12.10;99.90
14099;DHT22;7126;48.458;7.930;2023-03-14T08:05:34;12.20;99.90
14099;DHT22;7126;48.458;7.930;2023-03-14T08:08:00;12.30;99.90
14099;DHT22;7126;48.458;7.930;2023-03-14T08:10:25;12.40;99.90
14099;DHT22;7126;48.458;7.930;2023-03-14T08:12:54;12.50;99.90
14099;DHT22;7126;48.458;7.930;2023-03-14T08:15:21;12.60;99.90
14099;DHT22;7126;48.458;7.930;2023-03-14T08:17:47;12.60;99.90
14099;DHT22;7126;48.458;7.930;2023-03-14T08:20:17;12.60;99.90
14099;DHT22;7126;48.458;7.930;2023-03-14T08:22:42;12.60;99.90
14099;DHT22;7126;48.458;7.930;2023-03-14T08:25:08;12.60;99.90
14099;DHT22;7126;48.458;7.930;2023-03-14T08:27:33;12.60;99.90
14099;DHT22;7126;48.458;7.930;2023-03-14T08:29:59;12.60;99.90
14099;DHT22;7126;48.458;7.930;2023-03-14T08:32:25;12.50;99.90
14099;DHT22;7126;48.458;7.930;2023-03-14T08:34:50;12.50;99.90
14099;DHT22;7126;48.458;7.930;2023-03-14T08:37:16;12.50;99.90
14099;DHT22;7126;48.458;7.930;2023-03-14T08:39:41;12.60;99.90
14099;DHT22;7126;48.458;7.930;2023-03-14T08:42:07;12.50;99.90
14099;DHT22;7126;48.458;7.930;2023-03-14T08:44:32;12.50;99.90
14099;DHT22;7126;48.458;7.930;2023-03-14T08:46:58;12.50;99.90
14099;DHT22;7126;48.458;7.930;2023-03-14T08:49:23;12.50;99.90
14099;DHT22;7126;48.458;7.930;2023-03-14T08:51:49;12.60;99.90
14099;DHT22;7126;48.458;7.930;2023-03-14T08:54:14;12.60;99.90
14099;DHT22;7126;48.458;7.930;2023-03-14T08:56:40;12.70;99.90
14099;DHT22;7126;48.458;7.930;2023-03-14T08:59:06;12.80;99.90
14099;DHT22;7126;48.458;7.930;2023-03-14T09:01:31;12.90;99.90
14099;DHT22;7126;48.458;7.930;2023-03-14T09:03:57;12.90;99.90
14099;DHT22;7126;48.458;7.930;2023-03-14T09:06:23;12.80;99.90
14099;DHT22;7126;48.458;7.930;2023-03-14T09:08:48;12.90;99.90
14099;DHT22;7126;48.458;7.930;2023-03-14T09:11:14;12.90;99.90
14099;DHT22;7126;48.458;7.930;2023-03-14T09:13:40;12.90;99.90
14099;DHT22;7126;48.458;7.930;2023-03-14T09:16:07;12.90;99.90
14099;DHT22;7126;48.458;7.930;2023-03-14T09:18:32;12.90;99.90
14099;DHT22;7126;48.458;7.930;2023-03-14T09:20:58;12.90;99.90
14099;DHT22;7126;48.458;7.930;2023-03-14T09:23:24;12.90;99.90
14099;DHT22;7126;48.458;7.930;2023-03-14T09:25:55;12.90;99.90
14099;DHT22;7126;48.458;7.930;2023-03-14T09:28:21;12.90;99.90
14099;DHT22;7126;48.458;7.930;2023-03-14T09:30:46;12.90;99.90
14099;DHT22;7126;48.458;7.930;2023-03-14T09:33:12;12.80;99.90
14099;DHT22;7126;48.458;7.930;2023-03-14T09:35:40;12.80;99.90
14099;DHT22;7126;48.458;7.930;2023-03-14T09:38:05;12.70;99.90
14099;DHT22;7126;48.458;7.930;2023-03-14T09:40:34;12.70;99.90
14099;DHT22;7126;48.458;7.930;2023-03-14T09:43:00;12.60;99.90
14099;DHT22;7126;48.458;7.930;2023-03-14T09:45:28;12.60;99.90
14099;DHT22;7126;48.458;7.930;2023-03-14T09:47:55;12.50;99.90
14099;DHT22;7126;48.458;7.930;2023-03-14T09:50:23;12.40;99.90
14099;DHT22;7126;48.458;7.930;2023-03-14T09:52:52;12.40;99.90
14099;DHT22;7126;48.458;7.930;2023-03-14T09:55:22;12.30;99.90
14099;DHT22;7126;48.458;7.930;2023-03-14T09:57:50;12.20;99.90
14099;DHT22;7126;48.458;7.930;2023-03-14T10:00:22;12.10;99.90
14099;DHT22;7126;48.458;7.930;2023-03-14T10:02:53;12.00;99.90
14099;DHT22;7126;48.458;7.930;2023-03-14T10:05:22;11.90;99.90
14099;DHT22;7126;48.458;7.930;2023-03-14T10:07:47;11.80;99.90
14099;DHT22;7126;48.458;7.930;2023-03-14T10:10:21;11.80;99.90
14099;DHT22;7126;48.458;7.930;2023-03-14T10:12:55;11.80;99.90
14099;DHT22;7126;48.458;7.930;2023-03-14T10:15:27;11.70;99.90
14099;DHT22;7126;48.458;7.930;2023-03-14T10:17:54;11.70;99.90
14099;DHT22;7126;48.458;7.930;2023-03-14T10:22:53;11.50;99.90
14099;DHT22;7126;48.458;7.930;2023-03-14T10:25:32;11.50;99.90
14099;DHT22;7126;48.458;7.930;2023-03-14T10:27:59;11.60;99.90
14099;DHT22;7126;48.458;7.930;2023-03-14T10:30:38;11.50;99.90
14099;DHT22;7126;48.458;7.930;2023-03-14T10:33:12;11.60;99.90
14099;DHT22;7126;48.458;7.930;2023-03-14T10:35:44;11.60;99.90
14099;DHT22;7126;48.458;7.930;2023-03-14T10:38:16;11.70;99.90
14099;DHT22;7126;48.458;7.930;2023-03-14T10:40:47;11.80;99.90
14099;DHT22;7126;48.458;7.930;2023-03-14T10:43:17;11.80;99.90
14099;DHT22;7126;48.458;7.930;2023-03-14T10:45:52;11.80;99.90
14099;DHT22;7126;48.458;7.930;2023-03-14T10:48:30;11.80;99.90
14099;DHT22;7126;48.458;7.930;2023-03-14T10:51:24;11.70;99.90
14099;DHT22;7126;48.458;7.930;2023-03-14T10:53:59;11.70;99.90
14099;DHT22;7126;48.458;7.930;2023-03-14T10:56:27;11.70;99.90
14099;DHT22;7126;48.458;7.930;2023-03-14T10:58:56;11.60;99.90
14099;DHT22;7126;48.458;7.930;2023-03-14T11:04:02;11.60;99.90
14099;DHT22;7126;48.458;7.930;2023-03-14T11:06:43;11.50;99.90
14099;DHT22;7126;48.458;7.930;2023-03-14T11:15:25;10.90;99.90
14099;DHT22;7126;48.458;7.930;2023-03-14T11:23:21;10.60;99.90
14099;DHT22;7126;48.458;7.930;2023-03-14T11:25:57;10.60;99.90
14099;DHT22;7126;48.458;7.930;2023-03-14T11:28:40;10.60;99.90
14099;DHT22;7126;48.458;7.930;2023-03-14T11:31:24;10.60;99.90
14099;DHT22;7126;48.458;7.930;2023-03-14T11:33:56;10.50;99.90
14099;DHT22;7126;48.458;7.930;2023-03-14T11:36:29;10.50;99.90
14099;DHT22;7126;48.458;7.930;2023-03-14T11:38:58;10.70;99.90
14099;DHT22;7126;48.458;7.930;2023-03-14T11:41:37;10.80;99.90
14099;DHT22;7126;48.458;7.930;2023-03-14T11:44:10;10.80;99.90
14099;DHT22;7126;48.458;7.930;2023-03-14T11:46:43;10.90;99.90
14099;DHT22;7126;48.458;7.930;2023-03-14T11:49:27;10.90;99.90
14099;DHT22;7126;48.458;7.930;2023-03-14T11:52:05;11.00;99.90
14099;DHT22;7126;48.458;7.930;2023-03-14T11:54:53;11.00;99.90
14099;DHT22;7126;48.458;7.930;2023-03-14T11:57:21;11.10;99.90
14099;DHT22;7126;48.458;7.930;2023-03-14T12:02:25;11.20;99.90
14099;DHT22;7126;48.458;7.930;2023-03-14T12:10:29;11.10;99.90
14099;DHT22;7126;48.458;7.930;2023-03-14T12:12:57;11.10;99.90
14099;DHT22;7126;48.458;7.930;2023-03-14T12:15:23;11.10;99.90
14099;DHT22;7126;48.458;7.930;2023-03-14T12:17:56;11.20;99.90
14099;DHT22;7126;48.458;7.930;2023-03-14T12:20:23;11.10;99.90
14099;DHT22;7126;48.458;7.930;2023-03-14T12:25:24;11.20;99.90
14099;DHT22;7126;48.458;7.930;2023-03-14T12:30:40;11.10;99.90
14099;DHT22;7126;48.458;7.930;2023-03-14T12:35:58;11.00;99.90
14099;DHT22;7126;48.458;7.930;2023-03-14T12:43:40;10.90;99.90
14099;DHT22;7126;48.458;7.930;2023-03-14T12:48:53;10.90;99.90
14099;DHT22;7126;48.458;7.930;2023-03-14T12:51:37;10.80;99.90
14099;DHT22;7126;48.458;7.930;2023-03-14T12:56:50;10.80;99.90
14099;DHT22;7126;48.458;7.930;2023-03-14T12:59:38;10.80;99.90
14099;DHT22;7126;48.458;7.930;2023-03-14T13:04:43;10.80;99.90
14099;DHT22;7126;48.458;7.930;2023-03-14T13:07:32;10.70;99.90
14099;DHT22;7126;48.458;7.930;2023-03-14T13:10:03;10.80;99.90
14099;DHT22;7126;48.458;7.930;2023-03-14T13:12:37;10.90;99.90
14099;DHT22;7126;48.458;7.930;2023-03-14T13:18:02;10.90;99.90
14099;DHT22;7126;48.458;7.930;2023-03-14T13:23:28;10.90;99.90
14099;DHT22;7126;48.458;7.930;2023-03-14T13:25:55;10.90;99.90
14099;DHT22;7126;48.458;7.930;2023-03-14T13:28:21;10.90;99.90
14099;DHT22;7126;48.458;7.930;2023-03-14T13:30:49;10.90;99.90
14099;DHT22;7126;48.458;7.930;2023-03-14T13:33:18;10.80;99.90
14099;DHT22;7126;48.458;7.930;2023-03-14T13:35:54;10.80;99.90
14099;DHT22;7126;48.458;7.930;2023-03-14T13:38:28;10.80;99.90
14099;DHT22;7126;48.458;7.930;2023-03-14T13:40:56;10.80;99.90
14099;DHT22;7126;48.458;7.930;2023-03-14T13:43:44;10.80;99.90
14099;DHT22;7126;48.458;7.930;2023-03-14T13:46:23;10.80;99.90
14099;DHT22;7126;48.458;7.930;2023-03-14T13:48:57;11.00;99.90
14099;DHT22;7126;48.458;7.930;2023-03-14T13:51:24;11.40;99.90
14099;DHT22;7126;48.458;7.930;2023-03-14T13:53:54;11.60;99.90
14099;DHT22;7126;48.458;7.930;2023-03-14T13:56:26;11.80;99.90
14099;DHT22;7126;48.458;7.930;2023-03-14T13:58:52;11.90;99.90
14099;DHT22;7126;48.458;7.930;2023-03-14T14:01:34;11.80;99.90
14099;DHT22;7126;48.458;7.930;2023-03-14T14:04:15;11.90;99.90
14099;DHT22;7126;48.458;7.930;2023-03-14T14:06:56;11.90;99.90
14099;DHT22;7126;48.458;7.930;2023-03-14T14:09:35;11.80;99.90
14099;DHT22;7126;48.458;7.930;2023-03-14T14:12:14;11.60;99.90
14099;DHT22;7126;48.458;7.930;2023-03-14T14:17:57;11.30;99.90
14099;DHT22;7126;48.458;7.930;2023-03-14T14:20:30;11.20;99.90
14099;DHT22;7126;48.458;7.930;2023-03-14T14:23:01;11.20;99.90
14099;DHT22;7126;48.458;7.930;2023-03-14T14:25:28;11.10;99.90
14099;DHT22;7126;48.458;7.930;2023-03-14T14:27:54;11.10;99.90
14099;DHT22;7126;48.458;7.930;2023-03-14T14:32:48;11.00;99.90
14099;DHT22;7126;48.458;7.930;2023-03-14T14:35:31;10.90;99.90
14099;DHT22;7126;48.458;7.930;2023-03-14T14:37:58;10.80;99.90
14099;DHT22;7126;48.458;7.930;2023-03-14T14:40:26;10.80;99.90
14099;DHT22;7126;48.458;7.930;2023-03-14T14:42:53;10.60;99.90
14099;DHT22;7126;48.458;7.930;2023-03-14T14:45:21;10.60;99.90
14099;DHT22;7126;48.458;7.930;2023-03-14T14:50:31;10.60;99.90
14099;DHT22;7126;48.458;7.930;2023-03-14T14:52:59;10.70;99.90
14099;DHT22;7126;48.458;7.930;2023-03-14T14:55:39;10.90;99.90
14099;DHT22;7126;48.458;7.930;2023-03-14T14:58:35;11.00;99.90
14099;DHT22;7126;48.458;7.930;2023-03-14T15:01:07;11.10;99.90
14099;DHT22;7126;48.458;7.930;2023-03-14T15:03:34;11.20;99.90
14099;DHT22;7126;48.458;7.930;2023-03-14T15:06:01;11.10;99.90
14099;DHT22;7126;48.458;7.930;2023-03-14T15:08:28;11.00;99.90
14099;DHT22;7126;48.458;7.930;2023-03-14T15:10:55;11.00;99.90
14099;DHT22;7126;48.458;7.930;2023-03-14T15:13:20;11.00;99.90
14099;DHT22;7126;48.458;7.930;2023-03-14T15:15:46;11.00;99.90
14099;DHT22;7126;48.458;7.930;2023-03-14T15:18:15;11.00;99.90
14099;DHT22;7126;48.458;7.930;2023-03-14T15:20:42;10.90;99.90
14099;DHT22;7126;48.458;7.930;2023-03-14T15:23:16;10.90;99.90
14099;DHT22;7126;48.458;7.930;2023-03-14T15:25:42;10.90;99.90
14099;DHT22;7126;48.458;7.930;2023-03-14T15:28:19;10.80;99.90
14099;DHT22;7126;48.458;7.930;2023-03-14T15:30:48;10.80;99.90
14099;DHT22;7126;48.458;7.930;2023-03-14T15:33:14;10.70;99.90
14099;DHT22;7126;48.458;7.930;2023-03-14T15:35:40;10.70;99.90
14099;DHT22;7126;48.458;7.930;2023-03-14T15:38:12;10.70;99.90
14099;DHT22;7126;48.458;7.930;2023-03-14T15:40:39;10.70;99.90
14099;DHT22;7126;48.458;7.930;2023-03-14T15:43:05;10.60;99.90
14099;DHT22;7126;48.458;7.930;2023-03-14T15:45:30;10.60;99.90
14099;DHT22;7126;48.458;7.930;2023-03-14T15:47:56;10.60;99.90
14099;DHT22;7126;48.458;7.930;2023-03-14T15:50:22;10.60;99.90
14099;DHT22;7126;48.458;7.930;2023-03-14T15:52:48;10.60;99.90
14099;DHT22;7126;48.458;7.930;2023-03-14T15:55:14;10.70;99.90
14099;DHT22;7126;48.458;7.930;2023-03-14T15:57:41;10.60;99.90
14099;DHT22;7126;48.458;7.930;2023-03-14T16:00:09;10.60;99.90
14099;DHT22;7126;48.458;7.930;2023-03-14T16:02:36;10.50;99.90
14099;DHT22;7126;48.458;7.930;2023-03-14T16:05:05;10.60;99.90
14099;DHT22;7126;48.458;7.930;2023-03-14T16:07:31;10.50;99.90
14099;DHT22;7126;48.458;7.930;2023-03-14T16:09:58;10.50;99.90
14099;DHT22;7126;48.458;7.930;2023-03-14T16:12:24;10.40;99.90
14099;DHT22;7126;48.458;7.930;2023-03-14T16:14:49;10.30;99.90
14099;DHT22;7126;48.458;7.930;2023-03-14T16:17:15;10.10;99.90
14099;DHT22;7126;48.458;7.930;2023-03-14T16:19:40;9.90;99.90
14099;DHT22;7126;48.458;7.930;2023-03-14T16:22:06;9.60;99.90
14099;DHT22;7126;48.458;7.930;2023-03-14T16:24:32;9.40;99.90
14099;DHT22;7126;48.458;7.930;2023-03-14T16:26:57;9.20;99.90
14099;DHT22;7126;48.458;7.930;2023-03-14T16:29:23;9.10;99.90
14099;DHT22;7126;48.458;7.930;2023-03-14T16:31:48;8.90;99.90
14099;DHT22;7126;48.458;7.930;2023-03-14T16:34:14;8.80;99.90
14099;DHT22;7126;48.458;7.930;2023-03-14T16:36:39;8.70;99.90
14099;DHT22;7126;48.458;7.930;2023-03-14T16:39:05;8.70;99.90
14099;DHT22;7126;48.458;7.930;2023-03-14T16:41:30;8.80;99.90
14099;DHT22;7126;48.458;7.930;2023-03-14T16:43:57;8.90;99.90
14099;DHT22;7126;48.458;7.930;2023-03-14T16:46:23;8.90;99.90
14099;DHT22;7126;48.458;7.930;2023-03-14T16:48:50;9.00;99.90
14099;DHT22;7126;48.458;7.930;2023-03-14T16:51:15;9.20;99.90
14099;DHT22;7126;48.458;7.930;2023-03-14T16:53:41;9.20;99.90
14099;DHT22;7126;48.458;7.930;2023-03-14T16:56:07;9.30;99.90
14099;DHT22;7126;48.458;7.930;2023-03-14T16:58:33;9.30;99.90
14099;DHT22;7126;48.458;7.930;2023-03-14T17:00:59;9.30;99.90